Time;durP1;ratioP1;P1;durP2;ratioP2;P2;SDS_P1;SDS_P2;PMS_P1;PMS_P2;Temp;Humidity;BMP_temperature;BMP_pressure;BME280_temperature;BME280_humidity;BME280_pressure;Samples;Min_cycle;Max_cycle;Signal;HPM_P1;HPM_P2
2021/10/04 00:02:02;;;;;;;2.60;1.27;;;16.80;99.90;;;;;;6126540;23;20506;-85
2021/10/04 00:04:29;;;;;;;3.20;1.70;;;16.80;99.90;;;;;;6126117;23;20459;-84
2021/10/04 00:06:56;;;;;;;1.97;1.67;;;16.80;99.90;;;;;;6127178;23;20435;-84
2021/10/04 00:09:23;;;;;;;2.30;1.60;;;16.80;99.90;;;;;;6126718;23;20408;-84
2021/10/04 00:11:50;;;;;;;1.70;1.30;;;16.80;99.90;;;;;;6127314;23;20739;-84
2021/10/04 00:14:20;;;;;;;1.80;1.47;;;16.80;99.90;;;;;;6129304;23;20432;-84
2021/10/04 00:16:47;;;;;;;2.53;1.67;;;16.80;99.90;;;;;;6128058;23;20427;-84
2021/10/04 00:19:15;;;;;;;2.70;1.80;;;16.80;99.90;;;;;;6133765;23;20454;-83
2021/10/04 00:21:42;;;;;;;1.60;1.27;;;16.70;99.90;;;;;;6149692;23;20421;-84
2021/10/04 00:24:09;;;;;;;1.60;1.50;;;16.80;99.90;;;;;;6142054;23;20418;-84
2021/10/04 00:26:35;;;;;;;1.57;1.27;;;16.80;99.90;;;;;;6145614;23;20427;-83
2021/10/04 00:29:02;;;;;;;1.37;1.20;;;16.70;99.90;;;;;;6150480;23;20479;-84
2021/10/04 00:31:29;;;;;;;1.77;1.27;;;16.70;99.90;;;;;;6150710;23;20404;-85
2021/10/04 00:33:55;;;;;;;1.20;1.03;;;16.70;99.90;;;;;;6140057;23;20431;-84
2021/10/04 00:36:23;;;;;;;2.50;1.27;;;16.70;99.90;;;;;;6129638;23;20411;-84
2021/10/04 00:38:50;;;;;;;1.70;1.40;;;16.70;99.90;;;;;;6128606;23;20416;-84
2021/10/04 00:41:17;;;;;;;1.60;1.20;;;16.60;99.90;;;;;;6132131;23;20413;-84
2021/10/04 00:43:44;;;;;;;2.17;1.27;;;16.60;99.90;;;;;;6129006;23;20432;-85
2021/10/04 00:46:10;;;;;;;1.77;1.20;;;16.50;99.90;;;;;;6129276;23;20412;-84
2021/10/04 00:48:37;;;;;;;0.87;0.87;;;16.50;99.90;;;;;;6132980;23;20407;-85
2021/10/04 00:51:04;;;;;;;1.30;1.10;;;16.50;99.90;;;;;;6127906;23;20412;-85
2021/10/04 00:53:32;;;;;;;1.70;1.20;;;16.40;99.90;;;;;;6128895;23;20954;-84
2021/10/04 00:55:59;;;;;;;1.60;1.20;;;16.40;99.90;;;;;;6128999;23;20441;-84
2021/10/04 00:58:26;;;;;;;1.53;1.10;;;16.30;99.90;;;;;;6140506;23;20400;-84
2021/10/04 01:00:53;;;;;;;1.23;1.13;;;16.30;99.90;;;;;;6144158;23;20407;-85
2021/10/04 01:03:20;;;;;;;1.40;1.30;;;16.30;99.90;;;;;;6133063;23;21024;-85
2021/10/04 01:05:46;;;;;;;1.40;0.90;;;16.20;99.90;;;;;;6128024;23;20775;-85
2021/10/04 01:08:13;;;;;;;1.30;1.20;;;16.30;99.90;;;;;;6127565;23;20427;-85
2021/10/04 01:10:42;;;;;;;1.97;1.20;;;16.20;99.90;;;;;;6134514;23;20696;-85
2021/10/04 01:13:08;;;;;;;1.70;1.33;;;16.20;99.90;;;;;;6129280;23;20486;-85
2021/10/04 01:15:35;;;;;;;3.13;0.97;;;16.10;99.90;;;;;;6127259;23;20439;-86
2021/10/04 01:18:02;;;;;;;1.07;0.93;;;16.20;99.90;;;;;;6127329;23;20409;-85
2021/10/04 01:20:30;;;;;;;1.17;1.07;;;16.20;99.90;;;;;;6128664;23;20405;-85
2021/10/04 01:22:57;;;;;;;2.83;1.10;;;16.20;99.90;;;;;;6128836;23;20498;-85
2021/10/04 01:25:25;;;;;;;1.40;1.10;;;16.20;99.90;;;;;;6129317;23;20434;-85
2021/10/04 01:27:52;;;;;;;1.33;1.23;;;16.20;99.90;;;;;;6129274;23;20462;-85
2021/10/04 01:30:21;;;;;;;2.37;1.10;;;16.20;99.90;;;;;;6129464;23;20492;-85
2021/10/04 01:32:49;;;;;;;2.03;1.27;;;16.20;99.90;;;;;;6129630;23;20456;-85
2021/10/04 01:35:17;;;;;;;2.70;1.13;;;16.20;99.90;;;;;;6144108;23;20430;-84
2021/10/04 01:37:45;;;;;;;1.20;1.07;;;16.10;99.90;;;;;;6142536;23;20422;-85
2021/10/04 01:40:14;;;;;;;1.30;1.07;;;16.10;99.90;;;;;;6135208;23;20431;-84
2021/10/04 01:42:41;;;;;;;1.50;1.03;;;16.00;99.90;;;;;;6146816;23;20439;-84
2021/10/04 01:45:11;;;;;;;1.30;1.00;;;16.00;99.90;;;;;;6140298;23;20420;-83
2021/10/04 01:47:38;;;;;;;1.10;0.83;;;15.90;99.90;;;;;;6141189;23;20395;-83
2021/10/04 01:50:07;;;;;;;1.13;0.93;;;15.90;99.90;;;;;;6140564;23;20395;-84
2021/10/04 01:52:34;;;;;;;1.97;1.00;;;15.80;99.90;;;;;;6130535;23;20403;-83
2021/10/04 01:55:02;;;;;;;1.00;0.80;;;15.80;99.90;;;;;;6130312;23;20433;-84
2021/10/04 01:57:29;;;;;;;1.70;0.90;;;15.80;99.90;;;;;;6129123;23;20400;-84
2021/10/04 02:00:01;;;;;;;1.10;1.00;;;15.80;99.90;;;;;;6128938;23;20408;-84
2021/10/04 02:02:27;;;;;;;1.80;1.10;;;15.80;99.90;;;;;;6129469;23;20431;-84
2021/10/04 02:04:55;;;;;;;1.30;1.20;;;15.70;99.90;;;;;;6128978;23;20949;-84
2021/10/04 02:07:21;;;;;;;1.10;1.00;;;15.80;99.90;;;;;;6129447;23;20516;-83
2021/10/04 02:09:48;;;;;;;1.50;0.90;;;15.80;99.90;;;;;;6130606;23;20938;-82
2021/10/04 02:12:17;;;;;;;2.17;1.03;;;15.80;99.90;;;;;;6150848;23;20411;-82
2021/10/04 02:14:44;;;;;;;3.43;1.07;;;15.80;99.90;;;;;;6145186;23;20412;-81
2021/10/04 02:17:10;;;;;;;3.10;1.03;;;15.80;99.90;;;;;;6153963;23;20403;-82
2021/10/04 02:19:37;;;;;;;1.03;0.83;;;15.80;99.90;;;;;;6135952;23;20396;-83
2021/10/04 02:22:05;;;;;;;2.70;1.80;;;15.70;99.90;;;;;;6138151;23;20395;-82
2021/10/04 02:24:32;;;;;;;1.43;1.10;;;15.70;99.90;;;;;;6143835;23;20431;-83
2021/10/04 02:26:58;;;;;;;2.43;1.40;;;15.60;99.90;;;;;;6129937;23;20403;-83
2021/10/04 02:29:26;;;;;;;1.57;1.30;;;15.50;99.90;;;;;;6131481;23;20427;-85
2021/10/04 02:31:53;;;;;;;2.43;1.40;;;15.50;99.90;;;;;;6128717;23;20407;-85
2021/10/04 02:34:20;;;;;;;2.43;1.37;;;15.50;99.90;;;;;;6129259;23;20420;-85
2021/10/04 02:36:47;;;;;;;1.40;1.10;;;15.40;99.90;;;;;;6132817;23;20962;-82
2021/10/04 02:39:14;;;;;;;2.80;1.20;;;15.40;99.90;;;;;;6153042;23;20397;-82
2021/10/04 02:41:40;;;;;;;1.27;1.13;;;15.40;99.90;;;;;;6146460;23;20948;-84
2021/10/04 02:44:07;;;;;;;1.40;1.27;;;15.30;99.90;;;;;;6145061;23;20431;-83
2021/10/04 02:46:35;;;;;;;1.33;1.23;;;15.20;99.90;;;;;;6139297;23;20717;-85
2021/10/04 02:49:02;;;;;;;2.10;1.90;;;15.10;99.90;;;;;;6130130;23;20408;-83
2021/10/04 02:51:29;;;;;;;1.20;1.10;;;15.20;99.90;;;;;;6130670;23;20435;-84
2021/10/04 02:53:55;;;;;;;1.70;1.47;;;15.10;99.90;;;;;;6130480;23;20447;-84
2021/10/04 02:56:22;;;;;;;2.20;1.47;;;15.10;99.90;;;;;;6130427;23;20427;-84
2021/10/04 02:58:49;;;;;;;1.30;1.10;;;15.10;99.90;;;;;;6129531;23;20416;-84
2021/10/04 03:01:15;;;;;;;1.20;1.10;;;14.90;99.90;;;;;;6128892;23;20422;-84
2021/10/04 03:03:43;;;;;;;1.07;0.97;;;14.90;99.90;;;;;;6129782;23;20459;-85
2021/10/04 03:06:10;;;;;;;1.20;1.10;;;14.80;99.90;;;;;;6100160;23;20392;-84
2021/10/04 03:08:37;;;;;;;2.50;1.20;;;14.80;99.90;;;;;;6108899;23;20476;-83
2021/10/04 03:11:04;;;;;;;1.10;0.90;;;14.90;99.90;;;;;;6111700;23;20419;-84
2021/10/04 03:13:31;;;;;;;2.10;1.10;;;14.90;99.90;;;;;;6101689;23;20453;-84
2021/10/04 03:15:58;;;;;;;1.30;0.90;;;14.90;99.90;;;;;;6100689;23;20413;-84
2021/10/04 03:18:25;;;;;;;1.30;0.90;;;14.90;99.90;;;;;;6102236;23;20404;-83
2021/10/04 03:20:53;;;;;;;1.37;0.80;;;14.80;99.90;;;;;;6101565;23;20419;-84
2021/10/04 03:23:20;;;;;;;1.10;1.00;;;14.70;99.90;;;;;;6110056;23;20456;-88
2021/10/04 03:25:47;;;;;;;1.20;0.80;;;14.70;99.90;;;;;;6126790;23;20407;-86
2021/10/04 03:28:14;;;;;;;1.20;1.00;;;14.70;99.90;;;;;;6132880;23;20393;-86
2021/10/04 03:30:40;;;;;;;1.17;0.80;;;14.60;99.90;;;;;;6128061;23;20396;-88
2021/10/04 03:33:07;;;;;;;1.27;0.70;;;14.40;99.90;;;;;;6126569;23;20424;-88
2021/10/04 03:35:34;;;;;;;1.40;1.00;;;14.40;99.90;;;;;;6126644;23;20404;-86
2021/10/04 03:38:02;;;;;;;1.60;0.93;;;14.30;99.90;;;;;;6126586;23;20407;-89
2021/10/04 03:40:29;;;;;;;2.17;0.90;;;14.40;99.90;;;;;;6143417;23;20394;-87
2021/10/04 03:42:56;;;;;;;1.17;1.03;;;14.40;99.90;;;;;;6136595;23;20436;-86
2021/10/04 03:45:23;;;;;;;1.80;1.00;;;14.30;99.90;;;;;;6144844;23;20429;-86
2021/10/04 03:47:50;;;;;;;1.40;0.90;;;14.30;99.90;;;;;;6132982;23;20899;-86
2021/10/04 03:50:18;;;;;;;1.33;1.17;;;14.30;99.90;;;;;;6130331;23;20445;-87
2021/10/04 03:52:45;;;;;;;1.23;0.90;;;14.30;99.90;;;;;;6127222;23;20969;-87
2021/10/04 03:55:15;;;;;;;1.43;1.20;;;14.20;99.90;;;;;;6127160;23;20414;-87
2021/10/04 03:57:43;;;;;;;1.00;0.70;;;14.20;99.90;;;;;;6127394;23;20399;-88
2021/10/04 04:00:13;;;;;;;1.30;1.00;;;14.20;99.90;;;;;;6125499;23;20753;-88
2021/10/04 04:02:40;;;;;;;1.40;1.30;;;14.20;99.90;;;;;;6140704;23;20423;-88
2021/10/04 04:05:07;;;;;;;1.40;1.27;;;14.20;99.90;;;;;;6150554;23;20460;-88
2021/10/04 04:07:34;;;;;;;1.97;1.30;;;14.20;99.90;;;;;;6145602;23;20403;-87
2021/10/04 04:10:17;;;;;;;1.73;1.07;;;14.20;99.90;;;;;;6147413;23;20463;-89
2021/10/04 04:12:46;;;;;;;1.43;1.10;;;14.30;99.90;;;;;;6148780;23;20434;-88
2021/10/04 04:15:14;;;;;;;1.37;1.03;;;14.30;99.90;;;;;;6142052;23;20394;-87
2021/10/04 04:17:41;;;;;;;1.60;1.30;;;14.20;99.90;;;;;;6139957;23;20410;-88
2021/10/04 04:20:10;;;;;;;2.30;2.10;;;14.20;99.90;;;;;;6132703;23;20458;-88
2021/10/04 04:22:37;;;;;;;1.87;1.20;;;14.20;99.90;;;;;;6132461;23;20450;-88
2021/10/04 04:25:05;;;;;;;1.63;1.30;;;14.30;99.90;;;;;;6129504;23;20415;-87
2021/10/04 04:27:32;;;;;;;1.93;1.20;;;14.20;99.90;;;;;;6127230;23;20400;-87
2021/10/04 04:30:01;;;;;;;1.57;1.27;;;14.20;99.90;;;;;;6126378;23;20384;-87
2021/10/04 04:32:29;;;;;;;2.33;1.87;;;14.10;99.90;;;;;;6127083;23;20427;-87
2021/10/04 04:34:57;;;;;;;2.10;1.60;;;14.20;99.90;;;;;;6125587;23;20396;-87
2021/10/04 04:37:24;;;;;;;2.03;1.13;;;14.20;99.90;;;;;;6126664;23;20385;-88
2021/10/04 04:39:50;;;;;;;2.00;1.20;;;14.10;99.90;;;;;;6126718;23;20416;-88
2021/10/04 04:42:17;;;;;;;3.10;1.10;;;14.10;99.90;;;;;;6126889;23;20434;-87
2021/10/04 04:44:44;;;;;;;2.03;1.57;;;14.10;99.90;;;;;;6126585;23;20489;-87
2021/10/04 04:47:12;;;;;;;1.63;1.53;;;14.10;99.90;;;;;;6126291;23;20922;-87
2021/10/04 04:49:39;;;;;;;1.67;1.20;;;14.10;99.90;;;;;;6133660;23;20395;-87
2021/10/04 04:52:06;;;;;;;1.13;1.03;;;14.10;99.90;;;;;;6127195;23;20404;-88
2021/10/04 04:54:32;;;;;;;2.60;1.30;;;14.10;99.90;;;;;;6129017;23;20895;-88
2021/10/04 04:57:00;;;;;;;1.93;1.50;;;14.10;99.90;;;;;;6129207;23;20405;-87
2021/10/04 04:59:28;;;;;;;1.80;1.70;;;14.10;99.90;;;;;;6128987;23;20859;-87
2021/10/04 05:01:55;;;;;;;1.83;1.73;;;14.00;99.90;;;;;;6129479;23;20414;-87
2021/10/04 05:04:23;;;;;;;2.67;1.50;;;14.00;99.90;;;;;;6141293;23;20434;-87
2021/10/04 05:06:50;;;;;;;2.43;1.80;;;14.10;99.90;;;;;;6131493;23;20403;-87
2021/10/04 05:09:17;;;;;;;1.77;1.63;;;14.00;99.90;;;;;;6129551;23;20403;-88
2021/10/04 05:11:44;;;;;;;1.90;1.80;;;14.00;99.90;;;;;;6128977;23;20419;-87
2021/10/04 05:14:10;;;;;;;1.77;1.57;;;13.90;99.90;;;;;;6128581;23;20423;-88
2021/10/04 05:16:38;;;;;;;4.93;2.30;;;14.00;99.90;;;;;;6129568;23;20411;-88
2021/10/04 05:19:04;;;;;;;2.10;1.60;;;14.00;99.90;;;;;;6130159;23;20418;-88
2021/10/04 05:21:34;;;;;;;1.63;1.53;;;14.00;99.90;;;;;;6143973;23;20388;-88
2021/10/04 05:24:00;;;;;;;2.20;1.60;;;14.00;99.90;;;;;;6153473;23;20446;-87
2021/10/04 05:26:28;;;;;;;2.40;1.90;;;14.00;99.90;;;;;;6155200;23;20414;-87
2021/10/04 05:28:58;;;;;;;2.13;1.93;;;14.00;99.90;;;;;;6154853;23;20402;-87
2021/10/04 05:31:25;;;;;;;2.00;1.80;;;14.00;99.90;;;;;;6153570;23;20449;-87
2021/10/04 05:33:51;;;;;;;2.40;2.20;;;14.10;99.90;;;;;;6132331;23;20447;-87
2021/10/04 05:36:25;;;;;;;1.70;1.60;;;14.10;99.90;;;;;;6137338;23;20392;-87
2021/10/04 05:38:53;;;;;;;1.83;1.57;;;14.00;99.90;;;;;;6150351;23;20399;-88
2021/10/04 05:41:20;;;;;;;4.07;2.00;;;14.00;99.90;;;;;;6151264;23;20400;-87
2021/10/04 05:43:47;;;;;;;2.60;1.90;;;13.90;99.90;;;;;;6143035;23;20446;-87
2021/10/04 05:46:14;;;;;;;2.60;2.40;;;13.90;99.90;;;;;;6135232;23;20628;-88
2021/10/04 05:48:41;;;;;;;3.17;2.73;;;13.90;99.90;;;;;;6133738;23;20504;-86
2021/10/04 05:51:09;;;;;;;2.53;2.33;;;13.90;99.90;;;;;;6127871;23;20390;-89
2021/10/04 05:53:36;;;;;;;3.00;2.80;;;13.90;99.90;;;;;;6127440;23;20424;-88
2021/10/04 05:56:04;;;;;;;3.30;3.00;;;14.00;99.90;;;;;;6133860;23;20396;-88
2021/10/04 05:58:31;;;;;;;5.80;3.30;;;14.00;99.90;;;;;;6131279;23;20412;-89
2021/10/04 06:00:58;;;;;;;5.10;2.67;;;14.00;99.90;;;;;;6130131;23;20399;-88
2021/10/04 06:03:25;;;;;;;3.17;2.87;;;14.00;99.90;;;;;;6126633;23;20773;-88
2021/10/04 06:05:52;;;;;;;4.53;2.57;;;14.00;99.90;;;;;;6126780;23;20754;-88
2021/10/04 06:08:18;;;;;;;4.30;3.20;;;14.00;99.90;;;;;;6126573;23;20742;-88
2021/10/04 06:10:45;;;;;;;3.33;3.03;;;14.00;99.90;;;;;;6131950;23;20418;-88
2021/10/04 06:13:15;;;;;;;3.50;2.60;;;14.00;99.90;;;;;;6132354;23;20415;-88
2021/10/04 06:15:43;;;;;;;3.00;2.10;;;14.10;99.90;;;;;;6127594;23;20381;-88
2021/10/04 06:18:12;;;;;;;3.53;1.47;;;14.00;99.90;;;;;;6127251;23;20445;-89
2021/10/04 06:20:38;;;;;;;2.10;1.30;;;14.00;99.90;;;;;;6129015;23;20420;-88
2021/10/04 06:23:05;;;;;;;2.23;1.40;;;13.90;99.90;;;;;;6126995;23;20742;-89
2021/10/04 06:25:32;;;;;;;1.07;0.97;;;13.90;99.90;;;;;;6127558;23;20461;-88
2021/10/04 06:27:59;;;;;;;1.60;1.10;;;13.80;99.90;;;;;;6129830;23;20400;-88
2021/10/04 06:30:27;;;;;;;2.17;1.57;;;13.80;99.90;;;;;;6128761;23;20408;-88
2021/10/04 06:32:54;;;;;;;4.30;1.57;;;13.90;99.90;;;;;;6127938;23;20418;-88
2021/10/04 06:35:21;;;;;;;3.17;1.33;;;13.90;99.90;;;;;;6127942;23;20406;-89
2021/10/04 06:37:47;;;;;;;2.23;2.00;;;14.00;99.90;;;;;;6129482;23;20426;-88
2021/10/04 06:40:16;;;;;;;3.67;2.27;;;13.90;99.90;;;;;;6130621;23;20419;-86
2021/10/04 06:42:43;;;;;;;2.50;2.10;;;13.90;99.90;;;;;;6133039;23;20454;-88
2021/10/04 06:45:10;;;;;;;2.70;2.07;;;14.00;99.90;;;;;;6142810;23;20447;-89
2021/10/04 06:47:38;;;;;;;5.73;2.90;;;14.00;99.90;;;;;;6137578;23;20402;-79
2021/10/04 06:50:06;;;;;;;2.87;2.60;;;14.10;99.90;;;;;;6131228;23;20412;-80
2021/10/04 06:52:33;;;;;;;2.83;2.40;;;14.10;99.90;;;;;;6128985;23;20462;-79
2021/10/04 06:55:00;;;;;;;4.10;2.17;;;14.10;99.90;;;;;;6128477;23;20895;-80
2021/10/04 06:57:27;;;;;;;3.30;2.73;;;14.10;99.90;;;;;;6128419;23;20415;-80
2021/10/04 06:59:53;;;;;;;3.60;2.63;;;14.20;99.90;;;;;;6127574;23;20411;-81
2021/10/04 07:02:20;;;;;;;5.33;4.40;;;14.20;99.90;;;;;;6127808;23;20431;-81
2021/10/04 07:04:48;;;;;;;3.00;2.60;;;14.20;99.90;;;;;;6128114;23;20445;-81
2021/10/04 07:07:15;;;;;;;3.13;2.20;;;14.20;99.90;;;;;;6129245;23;20789;-83
2021/10/04 07:09:42;;;;;;;2.33;2.13;;;14.30;99.90;;;;;;6135294;23;20442;-81
2021/10/04 07:12:09;;;;;;;3.70;3.20;;;14.20;99.90;;;;;;6135556;23;20404;-88
2021/10/04 07:14:36;;;;;;;5.23;3.57;;;14.20;99.90;;;;;;6130608;23;20873;-89
2021/10/04 07:17:03;;;;;;;5.13;3.50;;;14.30;99.90;;;;;;6131827;23;20395;-88
2021/10/04 07:19:30;;;;;;;7.30;4.60;;;14.30;99.90;;;;;;6135920;23;20407;-87
2021/10/04 07:21:59;;;;;;;5.13;4.50;;;14.30;99.90;;;;;;6130323;23;20522;-88
2021/10/04 07:24:26;;;;;;;5.10;4.60;;;14.30;99.90;;;;;;6129033;23;20434;-86
2021/10/04 07:26:53;;;;;;;6.53;5.90;;;14.50;99.90;;;;;;6128203;23;20406;-87
2021/10/04 07:29:21;;;;;;;7.50;6.77;;;14.50;99.90;;;;;;6127904;23;20466;-87
2021/10/04 07:31:49;;;;;;;6.20;5.70;;;14.60;99.90;;;;;;6133696;23;20454;-87
2021/10/04 07:34:16;;;;;;;7.50;6.80;;;14.60;99.90;;;;;;6127553;23;20412;-87
2021/10/04 07:36:43;;;;;;;7.43;6.80;;;14.60;99.90;;;;;;6127155;23;20418;-87
2021/10/04 07:39:11;;;;;;;8.00;7.10;;;14.60;99.90;;;;;;6130621;23;20418;-86
2021/10/04 07:41:38;;;;;;;8.00;7.30;;;14.50;99.90;;;;;;6149365;23;20399;-88
2021/10/04 07:44:06;;;;;;;6.53;6.00;;;14.50;99.90;;;;;;6132214;23;20938;-87
2021/10/04 07:46:32;;;;;;;7.07;6.47;;;14.60;99.90;;;;;;6135079;23;20430;-88
2021/10/04 07:48:59;;;;;;;5.60;5.10;;;14.60;99.90;;;;;;6134510;23;20499;-87
2021/10/04 07:51:26;;;;;;;6.87;5.57;;;14.60;99.90;;;;;;6136634;23;20411;-87
2021/10/04 07:53:53;;;;;;;4.80;4.37;;;14.60;99.90;;;;;;6128955;23;20790;-87
2021/10/04 07:56:22;;;;;;;6.63;4.30;;;14.60;99.90;;;;;;6127971;23;20747;-87
2021/10/04 07:58:49;;;;;;;4.00;3.70;;;14.60;99.90;;;;;;6136664;23;20420;-87
2021/10/04 08:01:16;;;;;;;4.30;3.90;;;14.50;99.90;;;;;;6128585;23;20399;-86
2021/10/04 08:03:43;;;;;;;5.33;4.40;;;14.50;99.90;;;;;;6132619;23;20443;-87
2021/10/04 08:06:11;;;;;;;5.20;4.80;;;14.40;99.90;;;;;;6128213;23;20419;-87
2021/10/04 08:08:38;;;;;;;5.83;5.33;;;14.30;99.90;;;;;;6128611;23;20483;-88
2021/10/04 08:11:05;;;;;;;5.27;4.77;;;14.30;99.90;;;;;;6130742;23;20474;-87
2021/10/04 08:13:33;;;;;;;8.03;5.40;;;14.40;99.90;;;;;;6135573;23;20418;-87
2021/10/04 08:16:02;;;;;;;6.87;5.40;;;14.50;99.90;;;;;;6125863;23;20390;-87
2021/10/04 08:18:30;;;;;;;5.10;4.53;;;14.50;99.90;;;;;;6125531;23;20937;-87
2021/10/04 08:20:56;;;;;;;4.57;4.17;;;14.60;99.90;;;;;;6126446;23;20408;-88
2021/10/04 08:23:23;;;;;;;4.83;4.40;;;14.70;99.90;;;;;;6124825;23;20530;-89
2021/10/04 08:25:57;;;;;;;4.67;3.50;;;14.70;99.90;;;;;;6126338;23;20442;-89
2021/10/04 08:28:27;;;;;;;3.60;3.30;;;14.70;99.90;;;;;;6126110;23;20415;-88
2021/10/04 08:31:00;;;;;;;3.37;3.10;;;14.70;99.90;;;;;;6127656;23;20406;-88
2021/10/04 08:33:27;;;;;;;3.60;3.13;;;14.60;99.90;;;;;;6129412;23;20408;-88
2021/10/04 08:35:53;;;;;;;2.80;2.60;;;14.60;99.90;;;;;;6128508;23;20408;-89
2021/10/04 08:38:20;;;;;;;2.90;2.30;;;14.60;99.90;;;;;;6128666;23;20416;-88
2021/10/04 08:40:47;;;;;;;3.13;2.83;;;14.60;99.90;;;;;;6126963;23;20419;-90
2021/10/04 08:43:14;;;;;;;3.10;2.80;;;14.60;99.90;;;;;;6128286;23;20982;-90
2021/10/04 08:45:43;;;;;;;4.30;2.37;;;14.60;99.90;;;;;;6128800;23;20431;-88
2021/10/04 08:48:12;;;;;;;2.70;2.37;;;14.60;99.90;;;;;;6126319;23;20426;-90
2021/10/04 08:50:38;;;;;;;2.57;2.37;;;14.60;99.90;;;;;;6126690;23;20415;-89
2021/10/04 08:53:06;;;;;;;3.23;2.53;;;14.60;99.90;;;;;;6127695;23;20442;-89
2021/10/04 08:55:34;;;;;;;2.47;2.27;;;14.60;99.90;;;;;;6134299;23;20396;-89
2021/10/04 08:58:02;;;;;;;2.80;2.30;;;14.60;99.90;;;;;;6125370;23;20407;-90
2021/10/04 09:00:28;;;;;;;2.37;2.17;;;14.70;99.90;;;;;;6128866;23;20415;-90
2021/10/04 09:03:00;;;;;;;3.00;2.43;;;14.60;99.90;;;;;;6133943;23;20435;-89
2021/10/04 09:05:30;;;;;;;2.60;2.40;;;14.70;99.90;;;;;;6133307;23;20460;-89
2021/10/04 09:08:01;;;;;;;4.17;2.17;;;14.70;99.90;;;;;;6149749;23;20416;-89
2021/10/04 09:10:32;;;;;;;3.07;2.77;;;14.80;99.90;;;;;;6134765;23;20435;-89
2021/10/04 09:13:01;;;;;;;3.47;2.10;;;14.90;99.90;;;;;;6139031;23;20414;-90
2021/10/04 09:15:33;;;;;;;2.10;1.90;;;14.90;99.90;;;;;;6150612;23;20499;-91
2021/10/04 09:18:02;;;;;;;2.20;2.00;;;15.00;99.90;;;;;;6136760;23;20413;-90
2021/10/04 09:20:52;;;;;;;1.67;1.57;;;15.00;99.90;;;;;;6144191;23;20392;-89
2021/10/04 09:23:36;;;;;;;1.97;1.77;;;15.10;99.90;;;;;;6137443;23;20451;-82
2021/10/04 09:26:06;;;;;;;4.10;2.97;;;15.10;99.90;;;;;;6144623;23;20431;-83
2021/10/04 09:28:35;;;;;;;6.60;2.07;;;15.20;99.90;;;;;;6142791;23;20684;-85
2021/10/04 09:31:18;;;;;;;2.87;2.57;;;15.20;99.90;;;;;;6135959;23;20403;-85
2021/10/04 09:34:03;;;;;;;3.30;1.70;;;15.10;99.90;;;;;;6142700;23;20424;-84
2021/10/04 09:36:32;;;;;;;4.70;2.50;;;15.20;99.90;;;;;;6148384;23;20796;-84
2021/10/04 09:39:10;;;;;;;3.27;2.00;;;15.30;99.90;;;;;;6130536;23;20435;-84
2021/10/04 09:41:36;;;;;;;2.50;2.30;;;15.40;99.90;;;;;;6136873;23;20402;-85
2021/10/04 09:44:04;;;;;;;2.30;2.10;;;15.40;99.90;;;;;;6152389;23;20412;-84
2021/10/04 09:46:33;;;;;;;2.40;2.20;;;15.40;99.90;;;;;;6153472;23;20422;-85
2021/10/04 09:49:04;;;;;;;2.43;2.10;;;15.40;99.90;;;;;;6152548;23;20424;-82
2021/10/04 09:51:32;;;;;;;2.50;1.90;;;15.50;99.90;;;;;;6153788;23;20387;-81
2021/10/04 09:54:09;;;;;;;2.53;2.20;;;15.50;99.90;;;;;;6144186;23;20419;-84
2021/10/04 09:56:36;;;;;;;3.93;2.30;;;15.60;99.90;;;;;;6138515;23;20407;-83
2021/10/04 09:59:03;;;;;;;3.10;2.80;;;15.50;99.90;;;;;;6132369;23;21013;-85
2021/10/04 10:01:30;;;;;;;5.10;2.20;;;15.50;99.90;;;;;;6138385;23;20926;-84
2021/10/04 10:03:57;;;;;;;2.63;2.43;;;15.60;99.90;;;;;;6140936;23;20427;-85
2021/10/04 10:06:24;;;;;;;2.23;1.90;;;15.60;99.90;;;;;;6139454;23;20755;-85
2021/10/04 10:08:53;;;;;;;3.70;1.70;;;15.60;99.90;;;;;;6138265;23;20407;-85
2021/10/04 10:11:23;;;;;;;2.90;2.07;;;15.50;99.90;;;;;;6136727;23;20783;-83
2021/10/04 10:13:50;;;;;;;2.70;1.93;;;15.60;99.90;;;;;;6137681;23;20485;-84
2021/10/04 10:16:21;;;;;;;3.80;2.87;;;15.60;99.90;;;;;;6138037;23;20411;-84
2021/10/04 10:18:53;;;;;;;2.10;1.90;;;15.80;99.90;;;;;;6138358;23;20393;-86
2021/10/04 10:21:22;;;;;;;2.00;1.90;;;15.90;99.90;;;;;;6139194;23;20399;-84
2021/10/04 10:23:52;;;;;;;3.93;1.70;;;16.00;99.90;;;;;;6138773;23;20432;-84
2021/10/04 10:26:31;;;;;;;2.50;2.30;;;15.90;99.90;;;;;;6133323;23;20428;-85
2021/10/04 10:29:22;;;;;;;2.10;1.93;;;15.90;99.90;;;;;;6128193;23;20400;-85
2021/10/04 10:32:18;;;;;;;2.17;1.97;;;16.00;99.90;;;;;;6129967;23;20455;-85
2021/10/04 10:34:47;;;;;;;2.87;2.00;;;16.00;99.90;;;;;;6131156;23;20930;-86
2021/10/04 10:37:16;;;;;;;2.67;1.90;;;16.00;99.90;;;;;;6136807;23;20423;-86
2021/10/04 10:39:51;;;;;;;1.80;1.20;;;16.00;99.90;;;;;;6129741;23;20523;-86
2021/10/04 10:42:20;;;;;;;1.60;1.50;;;15.80;99.90;;;;;;6127587;23;20894;-86
2021/10/04 10:45:15;;;;;;;1.77;1.67;;;15.90;99.90;;;;;;6127762;23;20448;-86
2021/10/04 10:48:02;;;;;;;1.93;1.10;;;16.00;99.90;;;;;;6130660;23;20421;-86
2021/10/04 10:50:33;;;;;;;1.50;1.40;;;16.30;99.90;;;;;;6134667;23;20726;-86
2021/10/04 10:53:10;;;;;;;1.83;1.27;;;16.60;99.90;;;;;;6130811;23;20439;-86
2021/10/04 10:55:41;;;;;;;2.40;1.50;;;16.70;99.90;;;;;;6151381;23;20422;-86
2021/10/04 10:58:12;;;;;;;1.30;0.90;;;17.00;99.90;;;;;;6133637;23;20411;-86
2021/10/04 11:00:43;;;;;;;1.43;1.07;;;17.00;99.90;;;;;;6132331;23;20512;-90
2021/10/04 11:03:16;;;;;;;2.03;1.30;;;16.80;99.90;;;;;;6134195;23;20458;-82
2021/10/04 11:05:54;;;;;;;1.17;0.90;;;16.90;99.90;;;;;;6142952;23;20427;-81
2021/10/04 11:08:23;;;;;;;3.90;0.90;;;17.00;99.90;;;;;;6135106;23;20400;-83
2021/10/04 11:11:25;;;;;;;1.43;0.83;;;17.10;99.90;;;;;;6131017;23;20503;-83
2021/10/04 11:14:06;;;;;;;1.90;1.30;;;17.20;99.90;;;;;;6041455;23;20426;-86
2021/10/04 11:16:42;;;;;;;1.20;0.97;;;17.20;99.90;;;;;;6048952;23;20442;-86
2021/10/04 11:19:09;;;;;;;1.53;1.43;;;17.00;99.90;;;;;;6097727;23;20403;-86
2021/10/04 11:21:44;;;;;;;0.90;0.83;;;17.20;99.90;;;;;;6136293;23;20404;-89
2021/10/04 11:24:24;;;;;;;0.90;0.70;;;17.20;99.90;;;;;;6153906;23;20494;-88
2021/10/04 11:26:53;;;;;;;1.33;1.10;;;17.40;99.90;;;;;;6137165;23;20474;-88
2021/10/04 11:29:25;;;;;;;1.10;1.00;;;17.70;99.90;;;;;;6137516;23;20442;-88
2021/10/04 11:31:52;;;;;;;1.10;1.00;;;17.60;99.90;;;;;;6135867;23;20432;-88
2021/10/04 11:34:24;;;;;;;1.10;0.90;;;17.70;99.90;;;;;;6139898;23;20524;-88
2021/10/04 11:37:01;;;;;;;3.00;0.80;;;17.30;99.90;;;;;;6135278;23;20407;-87
2021/10/04 11:39:40;;;;;;;1.97;0.90;;;16.90;99.90;;;;;;6133690;23;20384;-88
2021/10/04 11:42:12;;;;;;;2.00;1.10;;;16.70;99.90;;;;;;6133376;23;20417;-88
2021/10/04 11:44:44;;;;;;;2.33;1.10;;;16.70;99.90;;;;;;6135717;23;20414;-89
2021/10/04 11:47:13;;;;;;;1.10;0.90;;;16.70;99.90;;;;;;6134844;23;20444;-88
2021/10/04 11:49:43;;;;;;;1.30;1.00;;;16.80;99.90;;;;;;6149746;23;20389;-87
2021/10/04 11:52:17;;;;;;;1.30;1.10;;;16.80;99.90;;;;;;6145527;23;20411;-89
2021/10/04 11:54:46;;;;;;;2.10;1.03;;;16.90;99.90;;;;;;6131070;23;20891;-89
2021/10/04 12:00:32;;;;;;;1.20;0.83;;;17.00;99.90;;;;;;6135331;23;20541;-89
2021/10/04 12:06:43;;;;;;;1.10;0.97;;;16.70;99.90;;;;;;6149698;23;20446;-89
2021/10/04 12:09:41;;;;;;;0.70;0.70;;;16.80;99.90;;;;;;6152996;23;20411;-89
2021/10/04 12:12:32;;;;;;;1.33;1.13;;;17.10;99.90;;;;;;6139894;23;20817;-88
2021/10/04 12:15:13;;;;;;;2.03;1.00;;;17.10;99.90;;;;;;6139270;23;20439;-88
2021/10/04 12:17:46;;;;;;;0.80;0.73;;;16.90;99.90;;;;;;6137862;23;20405;-88
2021/10/04 12:20:28;;;;;;;2.60;1.37;;;16.90;99.90;;;;;;6138027;23;20465;-89
2021/10/04 12:23:24;;;;;;;1.33;0.93;;;17.10;99.90;;;;;;6137167;23;20470;-89
2021/10/04 12:25:57;;;;;;;1.30;1.20;;;17.20;99.90;;;;;;6132203;23;20457;-88
2021/10/04 12:28:48;;;;;;;2.30;0.93;;;17.10;99.90;;;;;;6131335;23;20397;-87
2021/10/04 12:31:38;;;;;;;0.93;0.60;;;17.30;99.90;;;;;;6135357;23;20396;-88
2021/10/04 12:34:22;;;;;;;1.00;0.90;;;17.50;99.90;;;;;;6133665;23;20437;-88
2021/10/04 12:36:59;;;;;;;1.10;0.80;;;17.90;99.90;;;;;;6135428;23;20439;-89
2021/10/04 12:39:53;;;;;;;1.90;1.17;;;17.90;99.90;;;;;;6140083;23;20510;-88
2021/10/04 12:45:13;;;;;;;1.53;0.87;;;18.10;99.90;;;;;;6141772;23;20406;-87
2021/10/04 12:48:13;;;;;;;1.77;0.90;;;18.50;99.90;;;;;;6151761;23;20388;-87
2021/10/04 12:53:30;;;;;;;1.10;0.77;;;18.90;99.90;;;;;;6128940;23;20439;-88
2021/10/04 12:56:10;;;;;;;1.30;0.87;;;19.00;99.90;;;;;;6130731;23;20504;-87
2021/10/04 12:58:56;;;;;;;1.20;1.00;;;19.20;99.90;;;;;;6129127;23;20455;-88
2021/10/04 13:01:28;;;;;;;1.87;1.00;;;19.20;99.90;;;;;;6124561;23;20413;-88
2021/10/04 13:04:23;;;;;;;1.27;1.17;;;19.00;99.90;;;;;;6148145;23;20421;-89
2021/10/04 13:06:55;;;;;;;1.70;0.80;;;19.00;99.90;;;;;;6132869;23;20489;-88
2021/10/04 13:09:33;;;;;;;1.83;1.10;;;18.80;99.90;;;;;;6132327;23;20435;-88
2021/10/04 13:12:09;;;;;;;1.70;1.20;;;18.50;99.90;;;;;;6135468;23;20438;-88
2021/10/04 13:14:49;;;;;;;1.50;1.33;;;18.20;99.90;;;;;;6153509;23;20452;-88